TENO2: Tenkiller Lake

Data processed at Sat Oct 13 2018 23:32


All information presented herein is the property of the government of the United States of America and may be revised or deleted at any time without prior notice.
Dissemination of this information without the expressed written consent of the Public Affairs Office, Tulsa District U.S. Army Corps of Engineers is strictly prohibited.
These data are gathered electronically and, as presented, have not undergone any form of quality control. These data are not guaranteed to be valid or correct.
Go to home page.
Go to station list.
Go to home page.

Upstream stations:

Downstream station:
Previous Day
Next Day
Current Day
    
SHEF ID:       TENO2     Tenkiller Lake
STATION TYPE:  Reservoir
Normal Pool:  Bottom =   594.50, Top =   632.00

               PRECIP PRECIP(A) ELEVATION   STORAGE   TW-ELEV    INFLOW   RELEASE  AIR-TEMP  WIND-DIRWIND-SPEED REL-HUMID SOLAR-RAD   VOLTAGE  BAT-LOAD
                   in        in        ft     ac-ft        ft       cfs       cfs         F       deg       mph         %      W/m2      volt      volt
              Ccp-Rev   Ccp-Rev   Ccp-Rev   Ccp-Rev   Ccp-Rev  Regi-Rev  Regi-Rev   Ccp-Rev   Ccp-Rev   Ccp-Rev   Ccp-Rev   Ccp-Rev   Ccp-Rev   Ccp-Rev
(US/Central)
10/13 00:00      0.00      ----    628.43    623402    481.88      -901      -901     56.17    209.80      0.00     55.66      0.00     13.65     12.86
10/13 01:00      0.00      ----    628.45    623646    481.88      -901      -901     54.82    207.50      0.00     57.26      0.00     13.65     12.86
10/13 02:00      0.00      ----    628.43    623402    481.88      -901      -901     53.46    214.20      0.00     44.80      0.00     13.65     12.86
10/13 03:00      0.00      ----    628.45    623646    481.87      -901      -901     52.77    221.20      0.00     57.30      0.00     13.65     12.86
10/13 04:00      0.00      ----    628.45    623646    481.87      -901      -901     52.38    205.70      0.00     57.44      0.00     13.65     12.86
10/13 05:00      0.00      ----    628.44    623524    481.86      -901      -901     51.67    144.50      0.00     56.64      0.00     13.65     12.86
10/13 06:00      0.00      ----    628.46    623768    481.86      -901      -901     51.01    146.70      0.00     54.44      0.00     13.65     12.86
10/13 07:00      0.00      ----    628.45    623646    481.86      -901      -901     49.82     92.40      0.00     55.94      0.00     13.65     12.86
10/13 08:00      0.00      ----    628.46    623768    481.86      -901      -901     49.33    148.60      0.00     57.68      1.20     13.65     12.86
10/13 09:00      0.00      ----    628.45    623646    481.86      -901      -901     50.05    172.50      0.00     56.49     18.90     13.65     12.86
10/13 10:00      0.00      ----    628.46    623768    481.86      -901      -901     52.02    135.30      0.00     55.13     73.00     13.65     12.86
10/13 11:00      0.00      ----    628.46    623768    481.86      -901      -901     53.89    121.70      0.00     45.51     81.80     13.65     12.86
10/13 12:00      0.00      ----    628.45    623646    481.86      -901      -901     55.71    124.00      0.00     51.20     60.30     13.65     12.86
10/13 13:00      0.00      ----    628.46    623768    481.97      -901      -901     55.49    335.80      0.00     57.77     19.20     13.65     12.86
10/13 14:00      0.11      ----    628.47    623889    484.10      -901      -901     55.72    107.00      0.00     59.32     39.70     13.65     12.86
10/13 15:00      0.14      ----    628.48    624011    484.12      -901      -901     55.76     97.60      0.00     63.15     58.70     13.65     12.86
10/13 16:00      0.13      ----    628.46    623768    484.15      -901      -901     55.31     95.10      0.00     53.95     39.70     13.65     12.86
10/13 17:00      0.04      ----    628.49    624133    484.12      -901      -901     54.72    107.50      0.00     58.35     21.20     13.65     12.86
10/13 18:00      0.05      ----    628.48    624011    484.11      -901      -901     54.93     59.70      0.00     52.91      6.60     13.65     12.86
10/13 19:00      0.04      ----    628.48    624011    482.08      -901      -901     55.29     61.30      0.00     59.82      0.00     13.65     12.86
10/13 20:00      0.06      ----    628.48    624011    481.91      -901      -901     55.38    101.80      0.00     55.89      0.00     13.65     12.86
10/13 21:00      0.02      ----    628.49    624133    481.88      -901      -901     55.49    100.50      0.00     54.28      0.00     13.65     12.86
10/13 22:00      0.01      ----    628.48    624011    481.88      -901      -901     55.51     71.50      0.00     54.00      0.00     13.65     12.86
10/13 23:00      0.00      ----    628.49    624133    481.86      -901      -901     55.40    103.30      0.00     57.75      0.00     13.65     12.86